Time;durP1;ratioP1;P1;durP2;ratioP2;P2;SDS_P1;SDS_P2;PMS_P1;PMS_P2;Temp;Humidity;BMP_temperature;BMP_pressure;BME280_temperature;BME280_humidity;BME280_pressure;Samples;Min_cycle;Max_cycle;Signal;HPM_P1;HPM_P2
2022/09/30 00:01:52;;;;;;;8.70;8.00;;;10.10;99.90;;;;;;5072356;28;21204;-82
2022/09/30 00:04:23;;;;;;;8.30;7.53;;;10.20;1.00;;;;;;5077779;28;21023;-83
2022/09/30 00:06:52;;;;;;;9.33;8.20;;;10.20;1.00;;;;;;5071284;28;20843;-83
2022/09/30 00:09:20;;;;;;;8.23;7.53;;;10.20;1.00;;;;;;5076089;28;20873;-84
2022/09/30 00:11:51;;;;;;;9.93;8.80;;;10.20;1.00;;;;;;5069759;28;20953;-83
2022/09/30 00:14:21;;;;;;;10.17;9.17;;;10.20;1.00;;;;;;5072064;28;20451;-83
2022/09/30 00:16:50;;;;;;;10.87;9.50;;;10.20;1.00;;;;;;5075405;28;20477;-83
2022/09/30 00:19:18;;;;;;;9.97;9.10;;;10.20;1.00;;;;;;5077789;28;20968;-84
2022/09/30 00:21:46;;;;;;;9.40;8.50;;;10.20;1.00;;;;;;5073014;28;21162;-83
2022/09/30 00:24:14;;;;;;;10.87;9.80;;;10.20;1.00;;;;;;5079885;28;20689;-82
2022/09/30 00:26:42;;;;;;;9.87;8.87;;;10.20;1.00;;;;;;5073307;28;20482;-83
2022/09/30 00:29:12;;;;;;;9.90;8.53;;;10.20;1.00;;;;;;5078785;28;20466;-83
2022/09/30 00:31:40;;;;;;;10.30;8.23;;;10.20;5.00;;;;;;5079167;28;20462;-83
2022/09/30 00:34:10;;;;;;;9.97;9.17;;;10.20;1.00;;;;;;5076059;28;20540;-83
2022/09/30 00:36:44;;;;;;;11.17;9.03;;;10.30;1.00;;;;;;5079216;28;20481;-82
2022/09/30 00:39:15;;;;;;;8.43;7.63;;;10.30;1.00;;;;;;5075869;28;20450;-83
2022/09/30 00:41:43;;;;;;;9.47;8.57;;;10.20;6.30;;;;;;5082731;28;20538;-83
2022/09/30 00:45:06;;;;;;;10.10;9.07;;;10.20;1.00;;;;;;5071938;28;21014;-83
2022/09/30 00:47:47;;;;;;;10.43;8.33;;;10.20;1.00;;;;;;5020182;28;20484;-84
2022/09/30 00:50:29;;;;;;;10.20;8.97;;;10.30;1.00;;;;;;5012046;28;20575;-83
2022/09/30 00:53:04;;;;;;;10.50;9.47;;;10.30;1.00;;;;;;5017158;28;20460;-83
2022/09/30 00:55:45;;;;;;;9.83;8.83;;;10.30;1.00;;;;;;5036655;28;20562;-82
2022/09/30 00:58:20;;;;;;;10.13;9.07;;;10.30;33.00;;;;;;5073134;28;20642;-82
2022/09/30 01:00:49;;;;;;;9.83;8.80;;;10.30;1.00;;;;;;5072678;28;21031;-83
2022/09/30 01:03:21;;;;;;;9.33;8.40;;;10.30;45.60;;;;;;5072666;28;21146;-82
2022/09/30 01:05:50;;;;;;;9.63;8.70;;;10.30;5.60;;;;;;5075987;28;20469;-83
2022/09/30 01:08:20;;;;;;;9.40;8.50;;;10.30;2.00;;;;;;5082857;28;20453;-83
2022/09/30 01:10:48;;;;;;;10.67;9.83;;;10.30;1.00;;;;;;5079637;28;20585;-83
2022/09/30 01:13:19;;;;;;;9.67;8.77;;;10.40;1.00;;;;;;5078148;28;20534;-83
2022/09/30 01:16:16;;;;;;;9.00;8.20;;;10.30;21.90;;;;;;5079941;28;20527;-83
2022/09/30 01:19:01;;;;;;;10.63;8.63;;;10.20;99.90;;;;;;5072086;28;20455;-82
2022/09/30 01:21:49;;;;;;;9.83;9.00;;;10.20;99.90;;;;;;5071661;28;20501;-82
2022/09/30 01:24:47;;;;;;;8.90;8.10;;;10.20;99.90;;;;;;5083457;28;20446;-84
2022/09/30 01:27:48;;;;;;;9.47;8.77;;;10.30;99.90;;;;;;5076141;28;20481;-82
2022/09/30 01:30:20;;;;;;;9.30;8.40;;;10.40;99.90;;;;;;5071106;28;20549;-82
2022/09/30 01:33:19;;;;;;;10.23;9.33;;;10.50;1.00;;;;;;5077887;28;20892;-83
2022/09/30 01:36:04;;;;;;;8.93;8.03;;;10.50;99.90;;;;;;5081543;28;20655;-84
2022/09/30 01:38:44;;;;;;;8.40;7.87;;;10.40;1.00;;;;;;5080722;28;20953;-83
2022/09/30 01:41:23;;;;;;;8.23;7.60;;;10.50;1.00;;;;;;5077176;28;20452;-83
2022/09/30 01:43:57;;;;;;;7.43;6.83;;;10.50;99.90;;;;;;5077619;28;20899;-83
2022/09/30 01:46:33;;;;;;;8.00;7.30;;;10.60;1.00;;;;;;5077846;28;20474;-83
2022/09/30 01:49:12;;;;;;;8.90;8.33;;;10.60;1.00;;;;;;5081525;28;20504;-83
2022/09/30 01:51:46;;;;;;;8.27;7.47;;;10.50;99.90;;;;;;5073408;28;20498;-83
2022/09/30 01:54:20;;;;;;;10.20;9.10;;;10.50;99.90;;;;;;5077895;28;20441;-84
2022/09/30 01:56:51;;;;;;;8.10;7.37;;;10.40;99.90;;;;;;5075421;28;20549;-83
2022/09/30 01:59:24;;;;;;;8.80;8.00;;;10.50;99.90;;;;;;5081141;28;20611;-83
2022/09/30 02:01:56;;;;;;;8.03;7.53;;;10.50;1.00;;;;;;5087090;28;20457;-83
2022/09/30 02:04:31;;;;;;;7.40;6.97;;;10.40;99.90;;;;;;5084799;28;21039;-83
2022/09/30 02:07:05;;;;;;;8.47;7.77;;;10.30;1.00;;;;;;5084714;28;20546;-83
2022/09/30 02:09:38;;;;;;;7.77;7.00;;;10.20;1.00;;;;;;5080388;28;20460;-83
2022/09/30 02:12:11;;;;;;;6.97;6.37;;;10.10;99.90;;;;;;5078034;28;20450;-83
2022/09/30 02:14:43;;;;;;;8.17;7.40;;;10.20;99.90;;;;;;5078044;28;20599;-83
2022/09/30 02:17:16;;;;;;;8.33;7.53;;;10.20;86.30;;;;;;5078886;28;20478;-84
2022/09/30 02:19:51;;;;;;;8.77;8.07;;;10.20;99.90;;;;;;5085725;28;20496;-83
2022/09/30 02:22:23;;;;;;;7.90;7.40;;;10.30;43.70;;;;;;5085334;28;20554;-84
2022/09/30 02:24:55;;;;;;;7.40;6.90;;;10.30;99.90;;;;;;5080914;28;20573;-83
2022/09/30 02:27:27;;;;;;;7.17;6.50;;;10.20;99.90;;;;;;5079232;28;20482;-83
2022/09/30 02:29:58;;;;;;;10.73;7.30;;;10.10;99.90;;;;;;5081779;28;20456;-83
2022/09/30 02:32:31;;;;;;;8.90;8.07;;;10.10;99.90;;;;;;5082444;28;20987;-83
2022/09/30 02:35:05;;;;;;;8.70;7.67;;;10.10;99.90;;;;;;5083205;28;20465;-83
2022/09/30 02:37:37;;;;;;;8.90;8.20;;;10.10;99.90;;;;;;5076828;28;20565;-83
2022/09/30 02:40:11;;;;;;;9.00;8.30;;;10.10;99.90;;;;;;5078552;28;20457;-83
2022/09/30 02:42:40;;;;;;;9.50;8.70;;;10.10;99.90;;;;;;5076782;28;20548;-83
2022/09/30 02:45:11;;;;;;;9.50;8.70;;;10.20;99.90;;;;;;5076577;28;20469;-83
2022/09/30 02:47:51;;;;;;;9.77;8.23;;;10.20;99.90;;;;;;5082279;28;20579;-83
2022/09/30 02:50:31;;;;;;;8.77;7.97;;;10.20;99.90;;;;;;5082994;28;20494;-83
2022/09/30 02:53:13;;;;;;;10.13;7.60;;;10.20;99.90;;;;;;5081782;28;20452;-83
2022/09/30 02:55:55;;;;;;;8.33;7.73;;;10.20;99.90;;;;;;5074508;28;20576;-83
2022/09/30 02:58:26;;;;;;;8.07;7.23;;;10.10;99.90;;;;;;5072934;28;20487;-83
2022/09/30 03:00:54;;;;;;;7.67;6.97;;;10.00;99.90;;;;;;5077441;28;20474;-83
2022/09/30 03:03:28;;;;;;;7.60;7.00;;;10.10;99.90;;;;;;5081945;28;20473;-83
2022/09/30 03:05:57;;;;;;;9.10;8.30;;;10.10;99.90;;;;;;5077990;28;20531;-83
2022/09/30 03:08:26;;;;;;;9.10;7.90;;;10.10;99.90;;;;;;5080713;28;20457;-83
2022/09/30 03:10:54;;;;;;;8.13;7.40;;;10.10;99.90;;;;;;5075690;28;21088;-83
2022/09/30 03:13:54;;;;;;;8.40;7.80;;;10.00;99.90;;;;;;5074831;28;20486;-82
2022/09/30 03:16:32;;;;;;;7.50;6.90;;;10.00;99.90;;;;;;5076391;28;21333;-83
2022/09/30 03:19:24;;;;;;;7.80;7.20;;;10.00;99.90;;;;;;5068378;28;20480;-82
2022/09/30 03:22:10;;;;;;;7.80;7.27;;;10.00;99.90;;;;;;5074033;28;21186;-83
2022/09/30 03:24:59;;;;;;;8.17;7.47;;;9.90;99.90;;;;;;5078439;28;20459;-82
2022/09/30 03:27:36;;;;;;;7.63;7.03;;;10.00;99.90;;;;;;5079668;28;20475;-83
2022/09/30 03:30:07;;;;;;;8.30;7.40;;;9.90;99.90;;;;;;5077714;28;20651;-82
2022/09/30 03:32:56;;;;;;;7.70;7.20;;;9.90;99.90;;;;;;5080073;28;20500;-83
2022/09/30 03:35:33;;;;;;;6.60;6.20;;;9.90;99.90;;;;;;5074655;28;20461;-82
2022/09/30 03:38:12;;;;;;;7.50;6.90;;;9.90;99.90;;;;;;5078205;28;20509;-82
2022/09/30 03:40:50;;;;;;;7.40;6.90;;;9.80;99.90;;;;;;5072326;28;20503;-82
2022/09/30 03:43:24;;;;;;;7.93;7.30;;;9.80;99.90;;;;;;5074263;28;20549;-82
2022/09/30 03:46:00;;;;;;;8.13;7.53;;;9.80;99.90;;;;;;5071847;28;20474;-83
2022/09/30 03:48:31;;;;;;;7.97;7.27;;;9.70;99.90;;;;;;5076014;28;20458;-83
2022/09/30 03:51:01;;;;;;;7.90;7.20;;;9.70;99.90;;;;;;5074500;28;20561;-83
2022/09/30 03:53:31;;;;;;;8.07;7.43;;;9.70;99.90;;;;;;5075464;28;20464;-82
2022/09/30 03:55:59;;;;;;;9.30;8.37;;;9.70;99.90;;;;;;5076222;28;20576;-83
2022/09/30 03:58:27;;;;;;;8.33;7.73;;;9.70;99.90;;;;;;5077452;28;20537;-83
2022/09/30 04:00:55;;;;;;;8.37;7.77;;;9.70;99.90;;;;;;5071335;28;20524;-85
2022/09/30 04:03:26;;;;;;;8.87;8.07;;;9.70;99.90;;;;;;5070986;28;20551;-83
2022/09/30 04:05:54;;;;;;;8.90;8.00;;;9.70;99.90;;;;;;5081888;28;20475;-83
2022/09/30 04:08:22;;;;;;;8.03;7.53;;;9.60;99.90;;;;;;5073866;28;20506;-83
2022/09/30 04:10:52;;;;;;;7.37;6.80;;;9.60;99.90;;;;;;5076615;28;20552;-83
2022/09/30 04:13:20;;;;;;;7.90;7.30;;;9.70;99.90;;;;;;5080689;28;20541;-84
2022/09/30 04:15:54;;;;;;;7.30;6.80;;;9.60;99.90;;;;;;5075262;28;20493;-83
2022/09/30 04:18:23;;;;;;;9.30;7.23;;;9.60;99.90;;;;;;5076699;28;20464;-83
2022/09/30 04:20:51;;;;;;;7.80;7.20;;;9.60;99.90;;;;;;5076007;28;20479;-83
2022/09/30 04:23:19;;;;;;;7.63;7.03;;;9.70;99.90;;;;;;5073535;28;20457;-83
2022/09/30 04:25:53;;;;;;;8.23;7.53;;;9.70;99.90;;;;;;5079115;28;20480;-82
2022/09/30 04:28:22;;;;;;;8.00;7.30;;;9.60;99.90;;;;;;5076141;28;21163;-83
2022/09/30 04:30:50;;;;;;;8.37;7.57;;;9.70;99.90;;;;;;5069803;28;20464;-83
2022/09/30 04:33:18;;;;;;;8.40;7.80;;;9.60;99.90;;;;;;5068558;28;20476;-83
2022/09/30 04:35:46;;;;;;;8.53;7.93;;;9.60;99.90;;;;;;5073514;28;20918;-84
2022/09/30 04:38:14;;;;;;;9.27;7.83;;;9.50;99.90;;;;;;5071698;28;20472;-84
2022/09/30 04:40:42;;;;;;;8.63;7.80;;;9.50;99.90;;;;;;5076326;28;20647;-84
2022/09/30 04:43:12;;;;;;;7.20;6.60;;;9.50;99.90;;;;;;5073332;28;20537;-83
2022/09/30 04:45:43;;;;;;;7.73;7.10;;;9.60;99.90;;;;;;5078602;28;20480;-83
2022/09/30 04:48:12;;;;;;;8.97;7.90;;;9.50;99.90;;;;;;5072966;28;20502;-84
2022/09/30 04:50:40;;;;;;;9.53;8.63;;;9.60;99.90;;;;;;5082485;28;21373;-83
2022/09/30 04:53:09;;;;;;;10.37;9.47;;;9.80;44.50;;;;;;5078073;28;20495;-83
2022/09/30 04:55:37;;;;;;;9.27;8.57;;;9.80;1.00;;;;;;5077999;28;20886;-83
2022/09/30 04:58:05;;;;;;;9.77;8.90;;;9.80;1.00;;;;;;5076594;28;20448;-84
2022/09/30 05:00:34;;;;;;;9.10;8.37;;;9.70;99.90;;;;;;5074648;28;20537;-83
2022/09/30 05:03:03;;;;;;;9.93;8.93;;;9.60;99.90;;;;;;5081237;28;20498;-83
2022/09/30 05:05:32;;;;;;;9.07;8.20;;;9.60;99.90;;;;;;5086878;28;21055;-84
2022/09/30 05:08:01;;;;;;;9.23;8.23;;;9.70;99.90;;;;;;5076797;28;20482;-83
2022/09/30 05:10:30;;;;;;;9.43;8.53;;;9.70;99.90;;;;;;5079197;28;20454;-84
2022/09/30 05:12:58;;;;;;;10.40;9.40;;;9.70;99.90;;;;;;5085706;28;20581;-83
2022/09/30 05:15:27;;;;;;;9.00;8.40;;;9.60;99.90;;;;;;5078120;28;20542;-83
2022/09/30 05:17:56;;;;;;;11.83;8.90;;;9.70;99.90;;;;;;5079726;28;20538;-83
2022/09/30 05:20:24;;;;;;;9.00;8.20;;;9.70;1.00;;;;;;5085549;28;20476;-84
2022/09/30 05:22:55;;;;;;;9.90;8.97;;;9.70;1.00;;;;;;5079855;28;20546;-84
2022/09/30 05:25:23;;;;;;;10.33;9.40;;;9.80;1.00;;;;;;5085004;28;21249;-83
2022/09/30 05:27:51;;;;;;;9.30;8.50;;;9.90;99.90;;;;;;5082444;28;20519;-83
2022/09/30 05:30:19;;;;;;;9.97;8.97;;;9.80;99.90;;;;;;5083029;28;20565;-83
2022/09/30 05:32:47;;;;;;;10.27;9.60;;;9.80;99.90;;;;;;5073990;28;21056;-83
2022/09/30 05:35:17;;;;;;;10.30;9.50;;;9.70;99.90;;;;;;5082566;28;20974;-83
2022/09/30 05:37:45;;;;;;;8.57;8.00;;;9.70;99.90;;;;;;5078207;28;20554;-83
2022/09/30 05:40:13;;;;;;;9.90;9.20;;;9.60;99.90;;;;;;5074086;28;20483;-83
2022/09/30 05:42:43;;;;;;;9.77;8.97;;;9.70;99.90;;;;;;5077545;28;20491;-83
2022/09/30 05:45:11;;;;;;;9.50;8.70;;;9.70;99.90;;;;;;5068495;28;20511;-84
2022/09/30 05:47:39;;;;;;;16.83;15.13;;;9.70;99.90;;;;;;5072965;28;20932;-83
2022/09/30 05:50:08;;;;;;;14.47;13.37;;;9.70;99.90;;;;;;5079244;28;20602;-84
2022/09/30 05:52:38;;;;;;;21.30;19.30;;;9.70;99.90;;;;;;5079625;28;20468;-83
2022/09/30 05:55:06;;;;;;;18.40;16.80;;;9.80;99.90;;;;;;5069949;28;20535;-84
2022/09/30 05:57:35;;;;;;;15.20;13.80;;;9.80;99.90;;;;;;5082821;28;20915;-83
2022/09/30 06:00:03;;;;;;;13.80;12.60;;;9.80;99.90;;;;;;5075856;28;20478;-84
2022/09/30 06:02:32;;;;;;;11.93;10.83;;;9.90;99.90;;;;;;5075690;28;21013;-85
2022/09/30 06:05:00;;;;;;;11.10;10.10;;;9.90;99.90;;;;;;5076792;28;20454;-83
2022/09/30 06:07:29;;;;;;;11.27;10.47;;;10.00;99.90;;;;;;5076824;28;20567;-85
2022/09/30 06:09:58;;;;;;;13.77;11.77;;;10.00;99.90;;;;;;5080691;28;20450;-82
2022/09/30 06:12:27;;;;;;;11.33;10.17;;;10.10;99.90;;;;;;5079845;28;20469;-84
2022/09/30 06:14:55;;;;;;;11.20;10.30;;;10.10;99.90;;;;;;5082532;28;20463;-84
2022/09/30 06:17:24;;;;;;;12.17;11.27;;;10.30;99.90;;;;;;5087273;28;20497;-84
2022/09/30 06:19:52;;;;;;;13.60;12.40;;;10.40;1.00;;;;;;5071676;28;20470;-84
2022/09/30 06:22:20;;;;;;;12.10;11.10;;;10.50;99.90;;;;;;5081311;28;20513;-83
2022/09/30 06:24:48;;;;;;;11.20;10.33;;;10.60;1.00;;;;;;5077632;28;21327;-84
2022/09/30 06:27:23;;;;;;;12.17;11.20;;;10.70;99.90;;;;;;5079229;28;20481;-84
2022/09/30 06:29:52;;;;;;;11.70;10.70;;;10.60;99.90;;;;;;5080858;28;20449;-84
2022/09/30 06:32:20;;;;;;;11.30;10.50;;;10.60;1.00;;;;;;5074690;28;20488;-83
2022/09/30 06:34:48;;;;;;;12.67;11.57;;;10.60;99.90;;;;;;5078503;28;21053;-84
2022/09/30 06:38:53;;;;;;;13.00;11.90;;;10.60;99.90;;;;;;5099666;27;20583;-83
2022/09/30 06:41:23;;;;;;;12.07;10.97;;;10.70;1.00;;;;;;5093201;28;20533;-81
2022/09/30 06:43:51;;;;;;;13.20;12.07;;;10.70;1.00;;;;;;5074037;28;20503;-82
2022/09/30 06:46:29;;;;;;;12.60;11.43;;;10.80;99.90;;;;;;5070821;28;20545;-83
2022/09/30 06:48:59;;;;;;;11.50;10.60;;;10.80;99.90;;;;;;5060521;28;20563;-84
2022/09/30 06:51:40;;;;;;;13.13;12.07;;;10.70;1.00;;;;;;5046118;28;21021;-85
2022/09/30 06:54:11;;;;;;;12.83;11.53;;;10.80;99.90;;;;;;5047374;28;20455;-85
2022/09/30 06:56:39;;;;;;;14.27;12.90;;;10.90;1.00;;;;;;5047694;28;20565;-85
2022/09/30 06:59:07;;;;;;;14.10;12.90;;;10.90;99.90;;;;;;5067433;28;20446;-84
2022/09/30 07:01:35;;;;;;;14.00;12.73;;;11.00;81.40;;;;;;5056724;28;20835;-86
2022/09/30 07:04:08;;;;;;;14.03;13.03;;;10.90;99.90;;;;;;5064671;28;20512;-84
2022/09/30 07:06:37;;;;;;;13.77;12.50;;;10.90;64.50;;;;;;5064374;28;20668;-83
2022/09/30 07:09:06;;;;;;;13.67;12.57;;;10.80;99.90;;;;;;5061433;28;20914;-84
2022/09/30 07:11:37;;;;;;;15.83;14.43;;;10.80;99.90;;;;;;5047498;28;20828;-83
2022/09/30 07:14:05;;;;;;;14.80;13.50;;;10.90;77.20;;;;;;5063685;28;20464;-83
2022/09/30 07:16:34;;;;;;;14.00;12.73;;;10.90;1.00;;;;;;5064132;28;20486;-83
2022/09/30 07:19:04;;;;;;;13.77;12.57;;;10.90;32.90;;;;;;5066225;28;20467;-83
2022/09/30 07:21:32;;;;;;;14.40;13.27;;;11.00;24.90;;;;;;5065585;28;20447;-84
2022/09/30 07:24:01;;;;;;;14.10;13.00;;;11.00;1.00;;;;;;5040435;28;20471;-83
2022/09/30 07:26:30;;;;;;;14.23;13.03;;;11.10;99.90;;;;;;5058495;28;20471;-83
2022/09/30 07:29:00;;;;;;;14.43;13.20;;;11.20;1.00;;;;;;5064124;28;20435;-83
2022/09/30 07:31:28;;;;;;;13.93;12.97;;;11.20;99.90;;;;;;5062135;28;20456;-83
2022/09/30 07:34:02;;;;;;;15.57;14.30;;;11.30;1.00;;;;;;5065133;28;20436;-84
2022/09/30 07:36:31;;;;;;;16.23;14.63;;;11.30;99.90;;;;;;5059723;28;20975;-84
2022/09/30 07:39:05;;;;;;;16.10;14.60;;;11.30;99.90;;;;;;5061014;28;20589;-84
2022/09/30 07:41:36;;;;;;;15.80;14.27;;;11.30;99.90;;;;;;5062072;28;20457;-83
2022/09/30 07:44:09;;;;;;;16.17;14.43;;;11.30;39.50;;;;;;5065627;28;20451;-83
2022/09/30 07:46:39;;;;;;;15.70;14.40;;;11.40;1.00;;;;;;5054845;28;20478;-84
2022/09/30 07:49:11;;;;;;;15.63;14.23;;;11.40;99.90;;;;;;5058414;28;20470;-84
2022/09/30 07:51:42;;;;;;;13.83;13.03;;;11.40;1.00;;;;;;5048804;28;20452;-84
2022/09/30 07:54:13;;;;;;;16.27;14.83;;;11.50;1.00;;;;;;5031269;28;20536;-85
2022/09/30 07:56:42;;;;;;;16.47;15.10;;;11.60;1.00;;;;;;5048141;28;21158;-84
2022/09/30 07:59:34;;;;;;;14.93;13.63;;;11.70;44.30;;;;;;5037126;28;20811;-84
2022/09/30 08:02:03;;;;;;;15.80;14.50;;;11.80;99.90;;;;;;5042574;28;21086;-85
2022/09/30 08:04:31;;;;;;;16.13;14.60;;;11.80;1.00;;;;;;5041054;28;20461;-85
2022/09/30 08:07:01;;;;;;;15.43;14.23;;;11.80;99.90;;;;;;5053048;28;20495;-85
2022/09/30 08:09:30;;;;;;;15.27;14.27;;;11.70;99.90;;;;;;5045657;28;20994;-85
2022/09/30 08:11:59;;;;;;;14.90;13.80;;;11.80;70.20;;;;;;5044408;28;20445;-85
2022/09/30 08:14:28;;;;;;;15.27;14.00;;;11.80;99.90;;;;;;5037776;28;20506;-83
2022/09/30 08:16:59;;;;;;;14.60;13.50;;;11.90;1.00;;;;;;5027906;28;20480;-85
2022/09/30 08:19:29;;;;;;;15.23;14.03;;;11.90;99.90;;;;;;5041886;28;20485;-83
2022/09/30 08:21:58;;;;;;;15.10;14.00;;;12.00;99.90;;;;;;5043932;28;20524;-84
2022/09/30 08:24:27;;;;;;;15.70;14.47;;;11.90;99.90;;;;;;5042716;28;21010;-85
2022/09/30 08:26:55;;;;;;;15.13;14.13;;;12.00;99.90;;;;;;5040393;28;20484;-84
2022/09/30 08:29:24;;;;;;;16.00;14.63;;;12.00;1.00;;;;;;5044474;28;20461;-84
2022/09/30 08:32:14;;;;;;;15.87;14.40;;;12.20;99.90;;;;;;5036948;28;20456;-84
2022/09/30 08:34:42;;;;;;;14.30;13.10;;;12.30;99.90;;;;;;5044822;28;21137;-84
2022/09/30 08:37:11;;;;;;;14.17;13.27;;;12.20;1.00;;;;;;5043356;28;20498;-84
2022/09/30 08:39:39;;;;;;;12.77;11.87;;;12.40;1.00;;;;;;5042068;28;20540;-84
2022/09/30 08:42:23;;;;;;;11.97;11.07;;;12.30;99.90;;;;;;5043967;28;20449;-85
2022/09/30 08:45:13;;;;;;;12.27;11.43;;;12.50;1.00;;;;;;5040561;28;20460;-81
2022/09/30 08:47:48;;;;;;;13.43;12.60;;;12.60;1.00;;;;;;5041704;28;20470;-81
2022/09/30 08:50:23;;;;;;;13.10;12.20;;;13.00;99.90;;;;;;5043198;28;20978;-81
2022/09/30 08:52:58;;;;;;;14.13;13.07;;;13.30;99.90;;;;;;5051385;28;20467;-81
2022/09/30 08:55:31;;;;;;;13.30;12.30;;;13.70;99.90;;;;;;5042063;28;20461;-80
2022/09/30 08:58:02;;;;;;;12.80;11.93;;;13.80;1.00;;;;;;5047837;28;20561;-82
2022/09/30 09:00:30;;;;;;;12.43;11.53;;;14.10;1.00;;;;;;5039238;28;20610;-81
2022/09/30 09:03:03;;;;;;;11.77;10.87;;;14.30;1.00;;;;;;5034322;28;20958;-81
2022/09/30 09:05:46;;;;;;;11.37;10.47;;;14.30;1.00;;;;;;5039561;28;20454;-81
2022/09/30 09:08:27;;;;;;;10.90;10.10;;;14.60;1.00;;;;;;5037586;28;20463;-81
2022/09/30 09:11:04;;;;;;;11.80;11.00;;;15.50;1.00;;;;;;5042674;28;20459;-81
2022/09/30 09:13:45;;;;;;;10.17;9.57;;;16.80;99.90;;;;;;5037572;28;20452;-82
2022/09/30 09:16:21;;;;;;;11.90;10.13;;;16.80;99.90;;;;;;5027546;28;20913;-81
2022/09/30 09:19:01;;;;;;;10.17;9.33;;;16.90;99.90;;;;;;5053094;28;20476;-81
2022/09/30 09:21:46;;;;;;;9.90;9.10;;;17.90;99.90;;;;;;5029972;28;20478;-80
2022/09/30 09:24:18;;;;;;;9.23;8.63;;;18.80;99.90;;;;;;5044782;28;20481;-81
2022/09/30 09:26:47;;;;;;;8.73;8.10;;;19.50;99.90;;;;;;5043747;28;21017;-82
2022/09/30 09:29:27;;;;;;;7.10;6.73;;;19.30;99.90;;;;;;5041350;28;20475;-82
2022/09/30 09:31:58;;;;;;;7.10;6.40;;;20.70;99.90;;;;;;5045480;28;20501;-82
2022/09/30 09:34:30;;;;;;;7.50;6.97;;;20.90;99.90;;;;;;5027851;28;20892;-82
2022/09/30 09:37:11;;;;;;;6.93;6.43;;;22.70;99.90;;;;;;5045417;28;20509;-82
2022/09/30 09:40:07;;;;;;;7.33;6.60;;;22.90;99.90;;;;;;5044456;28;20465;-82
2022/09/30 09:42:47;;;;;;;6.57;6.07;;;22.40;99.90;;;;;;5046400;28;20555;-82
2022/09/30 09:45:25;;;;;;;5.27;4.80;;;23.10;99.90;;;;;;5024874;28;20553;-82
2022/09/30 09:47:56;;;;;;;5.20;4.90;;;22.60;99.90;;;;;;5035588;28;20462;-82
2022/09/30 09:50:34;;;;;;;5.47;4.97;;;21.60;99.90;;;;;;5042998;28;20472;-81
2022/09/30 09:53:25;;;;;;;5.80;5.50;;;20.70;99.90;;;;;;5039231;28;20455;-82
2022/09/30 09:55:58;;;;;;;4.80;4.53;;;20.10;99.90;;;;;;5016129;28;20552;-82
2022/09/30 09:58:27;;;;;;;4.83;4.43;;;19.10;99.90;;;;;;5052781;28;20469;-82
2022/09/30 10:01:31;;;;;;;3.80;3.60;;;18.20;99.90;;;;;;5048529;28;20465;-83
2022/09/30 10:04:14;;;;;;;5.17;4.70;;;17.50;99.90;;;;;;5044073;28;20515;-81
2022/09/30 10:06:50;;;;;;;4.80;4.50;;;17.00;99.90;;;;;;5042679;28;20482;-81
2022/09/30 10:09:27;;;;;;;6.07;5.67;;;16.80;99.90;;;;;;5038156;28;20457;-83
2022/09/30 10:12:27;;;;;;;4.30;4.10;;;16.60;99.90;;;;;;5036901;28;20464;-83
2022/09/30 10:15:04;;;;;;;4.37;4.07;;;16.40;99.90;;;;;;5018186;28;20456;-84
2022/09/30 10:17:35;;;;;;;3.77;3.40;;;16.40;99.90;;;;;;5053367;28;20499;-83
2022/09/30 10:20:07;;;;;;;6.17;4.10;;;16.30;99.90;;;;;;5049092;28;20472;-84
2022/09/30 10:22:37;;;;;;;4.43;4.20;;;16.40;99.90;;;;;;5041060;28;20544;-84
2022/09/30 10:25:19;;;;;;;4.57;4.27;;;16.20;99.90;;;;;;5046426;28;20524;-83
2022/09/30 10:27:50;;;;;;;4.60;4.20;;;16.00;99.90;;;;;;5043121;28;20467;-83
2022/09/30 10:30:45;;;;;;;4.47;4.17;;;16.80;99.90;;;;;;5038187;28;20473;-84
2022/09/30 10:33:21;;;;;;;3.27;3.00;;;18.90;99.90;;;;;;5048519;28;20622;-83
2022/09/30 10:36:02;;;;;;;3.50;2.77;;;19.70;99.90;;;;;;5046211;28;20483;-83
2022/09/30 10:38:33;;;;;;;2.80;2.60;;;22.20;99.90;;;;;;5045298;28;20512;-84
2022/09/30 10:41:04;;;;;;;2.37;2.27;;;22.90;99.90;;;;;;5030606;28;20478;-83
2022/09/30 10:43:38;;;;;;;2.27;2.07;;;21.60;99.90;;;;;;5052424;28;20513;-84
2022/09/30 10:46:09;;;;;;;2.90;2.70;;;24.70;99.90;;;;;;5027929;28;20607;-82
2022/09/30 10:48:56;;;;;;;2.60;2.40;;;29.20;99.90;;;;;;5037551;28;20447;-83
2022/09/30 10:51:27;;;;;;;2.23;2.13;;;31.60;99.90;;;;;;5048716;28;20459;-83
2022/09/30 10:53:58;;;;;;;2.70;2.50;;;28.10;99.90;;;;;;5045737;28;20452;-83
2022/09/30 10:56:43;;;;;;;3.70;2.90;;;25.60;99.90;;;;;;5049400;28;20471;-83
2022/09/30 10:59:19;;;;;;;2.10;2.00;;;23.50;99.90;;;;;;5028303;28;20467;-83
2022/09/30 11:01:51;;;;;;;2.97;2.63;;;25.20;99.90;;;;;;5048137;28;20483;-83
2022/09/30 11:04:31;;;;;;;2.10;1.90;;;28.50;99.90;;;;;;5047060;28;20451;-83
2022/09/30 11:07:11;;;;;;;4.30;2.53;;;26.70;99.90;;;;;;5019411;28;20570;-83
2022/09/30 11:09:48;;;;;;;4.20;2.40;;;22.50;99.90;;;;;;5040978;28;20444;-82
2022/09/30 11:12:23;;;;;;;2.20;2.00;;;20.10;90.90;;;;;;5044585;28;20978;-83
2022/09/30 11:15:01;;;;;;;7.43;5.40;;;18.90;83.90;;;;;;5042013;28;20465;-83
2022/09/30 11:17:36;;;;;;;3.10;2.90;;;18.50;83.60;;;;;;5038731;28;20544;-83
2022/09/30 11:20:18;;;;;;;2.63;2.43;;;18.30;88.40;;;;;;5043241;28;20483;-83
2022/09/30 11:22:58;;;;;;;3.27;2.97;;;18.30;90.30;;;;;;5032884;28;20486;-82
2022/09/30 11:25:38;;;;;;;3.63;3.33;;;18.10;92.00;;;;;;5042506;28;20546;-82
2022/09/30 11:28:33;;;;;;;4.97;3.40;;;17.70;94.70;;;;;;5046546;28;20454;-82
2022/09/30 11:31:12;;;;;;;3.50;2.80;;;17.40;95.50;;;;;;5038841;28;20468;-83
2022/09/30 11:33:53;;;;;;;3.10;2.70;;;17.50;99.90;;;;;;5048103;28;20542;-82
2022/09/30 11:36:32;;;;;;;3.13;2.83;;;17.60;99.90;;;;;;5050106;28;20474;-82
2022/09/30 11:39:21;;;;;;;9.73;7.67;;;17.40;99.90;;;;;;5041364;28;20514;-83
2022/09/30 11:41:58;;;;;;;6.90;6.10;;;17.50;99.90;;;;;;5042676;28;20485;-83
2022/09/30 11:44:33;;;;;;;4.30;3.83;;;17.40;99.90;;;;;;5040855;28;20454;-83
2022/09/30 11:47:15;;;;;;;8.13;4.53;;;17.30;99.90;;;;;;5048349;28;20473;-82
2022/09/30 11:50:15;;;;;;;5.17;4.67;;;17.00;99.90;;;;;;5043061;28;20465;-82
2022/09/30 11:52:55;;;;;;;6.03;4.07;;;17.10;99.90;;;;;;5042612;28;20474;-82
2022/09/30 11:55:39;;;;;;;3.53;3.23;;;17.40;99.90;;;;;;5039899;28;20560;-82
2022/09/30 11:58:10;;;;;;;2.60;2.50;;;17.40;99.90;;;;;;5046225;28;20454;-83
2022/09/30 12:01:08;;;;;;;3.03;2.73;;;17.30;99.90;;;;;;5040220;28;21072;-82
2022/09/30 12:03:42;;;;;;;2.77;2.50;;;17.30;99.90;;;;;;5047462;28;20455;-83
2022/09/30 12:06:16;;;;;;;2.70;2.50;;;17.40;99.90;;;;;;5051622;28;20568;-83
2022/09/30 12:08:50;;;;;;;3.33;3.03;;;17.40;99.40;;;;;;5046642;28;20463;-83
2022/09/30 12:11:22;;;;;;;2.93;2.73;;;17.40;99.90;;;;;;5047858;28;20460;-82
2022/09/30 12:13:59;;;;;;;3.53;2.53;;;17.50;99.90;;;;;;5045630;28;20451;-83
2022/09/30 12:16:31;;;;;;;3.80;3.50;;;17.80;99.90;;;;;;5024576;28;20469;-83
2022/09/30 12:19:13;;;;;;;3.40;3.10;;;17.80;99.90;;;;;;5049296;28;21068;-83
2022/09/30 12:21:49;;;;;;;3.45;3.22;;;17.60;99.90;;;;;;5044940;28;20436;-82
2022/09/30 12:24:25;;;;;;;7.40;5.70;;;17.30;99.90;;;;;;5038355;28;20210;-80
2022/09/30 12:26:54;;;;;;;3.33;3.13;;;17.10;99.90;;;;;;5042960;28;20472;-83
2022/09/30 12:32:51;;;;;;;2.77;2.57;;;16.90;99.90;;;;;;5022270;28;20473;-83
2022/09/30 12:35:42;;;;;;;2.83;2.63;;;16.60;99.90;;;;;;5039310;28;20459;-84
2022/09/30 12:38:29;;;;;;;2.60;2.40;;;16.50;99.90;;;;;;5044188;28;20484;-84
2022/09/30 12:41:15;;;;;;;2.53;2.43;;;16.50;99.90;;;;;;5037713;28;20473;-83
2022/09/30 12:44:14;;;;;;;3.00;2.77;;;16.40;99.90;;;;;;5045925;28;20877;-83
2022/09/30 12:47:02;;;;;;;3.17;2.87;;;16.40;99.90;;;;;;5044563;28;20628;-83
2022/09/30 12:49:33;;;;;;;3.20;2.90;;;16.30;99.90;;;;;;5024721;28;20461;-82
2022/09/30 12:52:06;;;;;;;2.83;2.63;;;16.10;99.40;;;;;;5040998;28;20545;-83
2022/09/30 12:54:39;;;;;;;2.97;2.77;;;16.10;99.90;;;;;;5038937;28;20526;-82
2022/09/30 12:57:09;;;;;;;3.90;2.90;;;16.10;99.90;;;;;;5044637;28;20570;-83
2022/09/30 12:59:46;;;;;;;5.13;2.77;;;16.10;99.90;;;;;;5048240;28;20951;-83
2022/09/30 13:02:30;;;;;;;2.47;2.20;;;16.20;99.90;;;;;;5038315;28;20471;-83
2022/09/30 13:05:32;;;;;;;1.90;1.80;;;16.10;99.90;;;;;;5039465;28;20979;-82
2022/09/30 13:08:22;;;;;;;3.00;2.00;;;16.10;99.90;;;;;;5038763;28;20468;-82
2022/09/30 13:11:00;;;;;;;2.37;2.17;;;16.00;99.90;;;;;;5026287;28;20465;-82
2022/09/30 13:13:31;;;;;;;2.00;1.90;;;16.10;99.90;;;;;;5019544;28;20459;-82
2022/09/30 13:16:03;;;;;;;3.37;3.13;;;16.00;99.90;;;;;;5042917;28;20513;-81
2022/09/30 13:19:01;;;;;;;3.40;3.10;;;16.00;99.90;;;;;;5049111;28;20463;-82
2022/09/30 13:21:30;;;;;;;2.10;1.90;;;16.00;99.90;;;;;;5037085;28;20516;-82
2022/09/30 13:24:00;;;;;;;4.07;2.10;;;16.00;99.90;;;;;;5035828;28;20441;-83
2022/09/30 13:27:06;;;;;;;1.83;1.73;;;16.10;99.90;;;;;;5033166;28;20513;-83
2022/09/30 13:29:38;;;;;;;3.00;2.20;;;16.00;99.90;;;;;;5048174;28;20510;-83